Catàleg de serveis del Meteocat
Campanya meteocatpedra

Dades de l'estació automàtica el Poal

?
?
Resum diari 21:30 TU
Dades diàries de l'estació meteorològica
Temperatura mitjana 14.2 °C
Temperatura màxima 19.0 °C 14:25 TU
Temperatura mínima 8.8 °C 3:09 TU
Humitat relativa mitjana 64%
Precipitació acumulada 0.0 mm
Ratxa màxima del vent (2 m) 33.5 km/h - 61º 10:33 TU
Irradiació solar global 7.4 MJ/m2

El tram horari està expressat en Temps Universal (TU). Cal sumar una hora en horari d'hivern i dues en horari d'estiu per passar a l'hora oficial.

el Poal

Metadades estació meteorol´gica
Municipi El Poal
Comarca Pla d'Urgell
Altitud 223 m
Data alta 14.09.1989
Estat actual Operativa
Dades de període
Període
TU
TM
°C
TX
°C
TN
°C
HRM
%
PPT
mm
VVM (2 m)
km/h
DVM (2 m)
graus
VVX (2 m)
km/h
RS
W/m2
00:00 - 00:30 11.1 12.2 10.7 82 0.0 4.0 49 8.3 0
00:30 - 01:00 10.5 10.7 10.4 84 0.0 5.4 72 10.4 0
01:00 - 01:30 10.3 10.4 10.3 85 0.0 6.8 68 11.5 0
01:30 - 02:00 9.8 10.4 9.5 88 0.0 4.7 86 11.9 0
02:00 - 02:30 9.4 9.7 9.3 89 0.0 5.8 91 12.2 0
02:30 - 03:00 9.2 9.3 9.0 91 0.0 5.8 75 10.8 0
03:00 - 03:30 8.9 9.0 8.8 91 0.0 6.8 73 13.3 0
03:30 - 04:00 9.1 9.2 9.0 90 0.0 7.9 69 14.8 0
04:00 - 04:30 9.5 9.6 9.2 89 0.0 8.6 60 15.1 0
04:30 - 05:00 9.5 9.7 9.3 89 0.0 6.5 50 13.0 0
05:00 - 05:30 9.3 9.5 9.2 90 0.0 4.0 72 8.6 1
05:30 - 06:00 9.2 9.3 9.1 90 0.0 3.6 59 9.0 32
06:00 - 06:30 9.4 9.9 9.2 90 0.0 4.3 46 10.1 92
06:30 - 07:00 10.8 11.5 10.1 87 0.0 5.0 72 10.4 161
07:00 - 07:30 12.2 13.2 11.5 82 0.0 5.4 67 10.1 192
07:30 - 08:00 13.6 14.3 13.2 72 0.0 6.8 63 13.0 252
08:00 - 08:30 14.4 14.5 14.2 65 0.0 6.1 58 14.8 156
08:30 - 09:00 14.1 14.3 13.9 61 0.0 9.7 65 22.0 80
09:00 - 09:30 14.1 14.3 14.0 57 0.0 13.3 73 27.0 146
09:30 - 10:00 14.4 14.7 14.3 57 0.0 10.4 73 19.4 147
10:00 - 10:30 15.1 15.2 14.8 58 0.0 14.4 63 29.9 135
10:30 - 11:00 15.2 15.5 15.1 58 0.0 16.6 65 33.5 150
11:00 - 11:30 15.9 16.3 15.5 58 0.0 13.3 67 26.6 201
11:30 - 12:00 17.0 17.6 16.3 54 0.0 12.2 76 24.1 282
12:00 - 12:30 17.7 17.9 17.6 49 0.0 15.8 76 32.0 249
12:30 - 13:00 18.1 18.3 17.9 46 0.0 14.0 84 29.9 243
13:00 - 13:30 18.5 18.7 18.2 45 0.0 11.5 88 21.6 242
13:30 - 14:00 18.8 18.8 18.7 41 0.0 16.2 94 32.4 242
14:00 - 14:30 18.9 19.0 18.8 42 0.0 17.6 80 30.2 250
14:30 - 15:00 18.8 19.0 18.6 43 0.0 15.1 92 30.6 186
15:00 - 15:30 18.5 18.6 18.5 46 0.0 14.0 97 29.9 178
15:30 - 16:00 18.3 18.5 18.2 46 0.0 15.5 94 29.2 166
16:00 - 16:30 17.9 18.1 17.7 49 0.0 14.4 95 26.6 107
16:30 - 17:00 18.0 18.1 17.8 47 0.0 11.5 96 25.9 113
17:00 - 17:30 17.8 18.1 17.6 46 0.0 10.8 90 23.4 80
17:30 - 18:00 17.5 17.9 16.9 46 0.0 11.2 84 26.6 44
18:00 - 18:30 17.0 17.0 16.8 48 0.0 14.0 76 28.8 13
18:30 - 19:00 16.7 16.9 16.3 45 0.0 13.0 72 25.9 0
19:00 - 19:30 15.8 16.4 15.0 48 0.0 6.1 87 16.6 0
19:30 - 20:00 15.6 15.9 15.1 50 0.0 10.8 85 24.1 0
20:00 - 20:30 15.3 15.6 15.1 51 0.0 14.4 75 27.4 0
20:30 - 21:00 15.1 15.3 14.9 52 0.0 16.2 68 33.1 0
21:00 - 21:30 14.5 14.8 14.4 51 0.0 13.0 64 21.6 0
21:30 - 22:00 14.6 14.8 14.4 50 0.0 11.5 63 20.5 0

Les dades en taronja només han passat un control de qualitat automàtic. Resta pendent la seva validació definitiva.